sensor_id;sensor_type;location;lat;lon;timestamp;temperature;humidity
42099;DHT22;27758;55.900;8.516;2023-05-07T00:00:45;6.50;99.90
42099;DHT22;27758;55.900;8.516;2023-05-07T00:03:11;6.50;99.90
42099;DHT22;27758;55.900;8.516;2023-05-07T00:05:38;6.60;99.90
42099;DHT22;27758;55.900;8.516;2023-05-07T00:08:04;6.60;99.90
42099;DHT22;27758;55.900;8.516;2023-05-07T00:10:30;6.60;99.90
42099;DHT22;27758;55.900;8.516;2023-05-07T00:12:56;6.60;99.90
42099;DHT22;27758;55.900;8.516;2023-05-07T00:15:21;6.70;99.90
42099;DHT22;27758;55.900;8.516;2023-05-07T00:17:47;6.70;99.90
42099;DHT22;27758;55.900;8.516;2023-05-07T00:20:15;6.70;99.90
42099;DHT22;27758;55.900;8.516;2023-05-07T00:22:41;6.80;99.90
42099;DHT22;27758;55.900;8.516;2023-05-07T00:25:07;6.80;99.90
42099;DHT22;27758;55.900;8.516;2023-05-07T00:27:33;6.80;99.90
42099;DHT22;27758;55.900;8.516;2023-05-07T00:29:58;6.80;99.90
42099;DHT22;27758;55.900;8.516;2023-05-07T00:32:24;6.80;99.90
42099;DHT22;27758;55.900;8.516;2023-05-07T00:34:50;6.80;99.90
42099;DHT22;27758;55.900;8.516;2023-05-07T00:37:16;6.80;99.90
42099;DHT22;27758;55.900;8.516;2023-05-07T00:39:42;6.80;99.90
42099;DHT22;27758;55.900;8.516;2023-05-07T00:42:07;6.80;99.90
42099;DHT22;27758;55.900;8.516;2023-05-07T00:44:33;6.80;99.90
42099;DHT22;27758;55.900;8.516;2023-05-07T00:47:02;6.70;99.90
42099;DHT22;27758;55.900;8.516;2023-05-07T00:49:38;6.70;99.90
42099;DHT22;27758;55.900;8.516;2023-05-07T00:52:11;6.70;99.90
42099;DHT22;27758;55.900;8.516;2023-05-07T00:54:37;6.60;99.90
42099;DHT22;27758;55.900;8.516;2023-05-07T00:57:03;6.60;99.90
42099;DHT22;27758;55.900;8.516;2023-05-07T00:59:31;6.60;99.90
42099;DHT22;27758;55.900;8.516;2023-05-07T01:01:57;6.50;99.90
42099;DHT22;27758;55.900;8.516;2023-05-07T01:04:22;6.50;99.90
42099;DHT22;27758;55.900;8.516;2023-05-07T01:06:51;6.60;99.90
42099;DHT22;27758;55.900;8.516;2023-05-07T01:09:19;6.50;99.90
42099;DHT22;27758;55.900;8.516;2023-05-07T01:11:45;6.50;99.90
42099;DHT22;27758;55.900;8.516;2023-05-07T01:14:12;6.50;99.90
42099;DHT22;27758;55.900;8.516;2023-05-07T01:16:37;6.50;99.90
42099;DHT22;27758;55.900;8.516;2023-05-07T01:19:03;6.50;99.90
42099;DHT22;27758;55.900;8.516;2023-05-07T01:21:32;6.50;99.90
42099;DHT22;27758;55.900;8.516;2023-05-07T01:23:58;6.50;99.90
42099;DHT22;27758;55.900;8.516;2023-05-07T01:26:24;6.50;99.90
42099;DHT22;27758;55.900;8.516;2023-05-07T01:28:50;6.50;99.90
42099;DHT22;27758;55.900;8.516;2023-05-07T01:31:16;6.50;99.90
42099;DHT22;27758;55.900;8.516;2023-05-07T01:33:44;6.60;99.90
42099;DHT22;27758;55.900;8.516;2023-05-07T01:36:12;6.50;99.90
42099;DHT22;27758;55.900;8.516;2023-05-07T01:38:39;6.50;99.90
42099;DHT22;27758;55.900;8.516;2023-05-07T01:41:06;6.50;99.90
42099;DHT22;27758;55.900;8.516;2023-05-07T01:43:33;6.50;99.90
42099;DHT22;27758;55.900;8.516;2023-05-07T01:45:59;6.60;99.90
42099;DHT22;27758;55.900;8.516;2023-05-07T01:48:26;6.50;99.90
42099;DHT22;27758;55.900;8.516;2023-05-07T01:50:53;6.60;99.90
42099;DHT22;27758;55.900;8.516;2023-05-07T01:53:18;6.60;99.90
42099;DHT22;27758;55.900;8.516;2023-05-07T01:55:44;6.50;99.90
42099;DHT22;27758;55.900;8.516;2023-05-07T01:58:10;6.60;99.90
42099;DHT22;27758;55.900;8.516;2023-05-07T02:00:36;6.60;99.90
42099;DHT22;27758;55.900;8.516;2023-05-07T02:03:02;6.60;99.90
42099;DHT22;27758;55.900;8.516;2023-05-07T02:05:27;6.50;99.90
42099;DHT22;27758;55.900;8.516;2023-05-07T02:07:53;6.60;99.90
42099;DHT22;27758;55.900;8.516;2023-05-07T02:10:19;6.50;99.90
42099;DHT22;27758;55.900;8.516;2023-05-07T02:12:44;6.50;99.90
42099;DHT22;27758;55.900;8.516;2023-05-07T02:15:13;6.50;99.90
42099;DHT22;27758;55.900;8.516;2023-05-07T02:18:02;6.50;99.90
42099;DHT22;27758;55.900;8.516;2023-05-07T02:20:28;6.50;99.90
42099;DHT22;27758;55.900;8.516;2023-05-07T02:22:54;6.50;99.90
42099;DHT22;27758;55.900;8.516;2023-05-07T02:25:22;6.50;99.90
42099;DHT22;27758;55.900;8.516;2023-05-07T02:27:48;6.50;99.90
42099;DHT22;27758;55.900;8.516;2023-05-07T02:30:14;6.50;99.90
42099;DHT22;27758;55.900;8.516;2023-05-07T02:32:40;6.50;99.90
42099;DHT22;27758;55.900;8.516;2023-05-07T02:35:06;6.50;99.90
42099;DHT22;27758;55.900;8.516;2023-05-07T02:37:32;6.60;99.90
42099;DHT22;27758;55.900;8.516;2023-05-07T02:39:57;6.60;99.90
42099;DHT22;27758;55.900;8.516;2023-05-07T02:42:23;6.60;99.90
42099;DHT22;27758;55.900;8.516;2023-05-07T02:44:49;6.60;99.90
42099;DHT22;27758;55.900;8.516;2023-05-07T02:47:17;6.60;99.90
42099;DHT22;27758;55.900;8.516;2023-05-07T02:49:43;6.60;99.90
42099;DHT22;27758;55.900;8.516;2023-05-07T02:52:08;6.70;99.90
42099;DHT22;27758;55.900;8.516;2023-05-07T02:54:34;6.70;99.90
42099;DHT22;27758;55.900;8.516;2023-05-07T02:57:00;6.70;99.90
42099;DHT22;27758;55.900;8.516;2023-05-07T02:59:26;6.70;99.90
42099;DHT22;27758;55.900;8.516;2023-05-07T03:01:52;6.70;99.90
42099;DHT22;27758;55.900;8.516;2023-05-07T03:04:17;6.80;99.90
42099;DHT22;27758;55.900;8.516;2023-05-07T03:06:43;6.70;99.90
42099;DHT22;27758;55.900;8.516;2023-05-07T03:09:09;6.80;99.90
42099;DHT22;27758;55.900;8.516;2023-05-07T03:11:34;6.80;99.90
42099;DHT22;27758;55.900;8.516;2023-05-07T03:14:01;6.80;99.90
42099;DHT22;27758;55.900;8.516;2023-05-07T03:16:27;6.90;99.90
42099;DHT22;27758;55.900;8.516;2023-05-07T03:18:53;6.80;99.90
42099;DHT22;27758;55.900;8.516;2023-05-07T03:21:18;6.80;99.90
42099;DHT22;27758;55.900;8.516;2023-05-07T03:23:44;6.80;99.90
42099;DHT22;27758;55.900;8.516;2023-05-07T03:26:10;6.80;99.90
42099;DHT22;27758;55.900;8.516;2023-05-07T03:28:36;6.90;99.90
42099;DHT22;27758;55.900;8.516;2023-05-07T03:31:02;6.90;99.90
42099;DHT22;27758;55.900;8.516;2023-05-07T03:33:28;6.90;99.90
42099;DHT22;27758;55.900;8.516;2023-05-07T03:35:54;6.80;99.90
42099;DHT22;27758;55.900;8.516;2023-05-07T03:38:26;6.90;99.90
42099;DHT22;27758;55.900;8.516;2023-05-07T03:40:51;6.90;99.90
42099;DHT22;27758;55.900;8.516;2023-05-07T03:43:17;6.90;99.90
42099;DHT22;27758;55.900;8.516;2023-05-07T03:45:43;6.90;99.90
42099;DHT22;27758;55.900;8.516;2023-05-07T03:48:08;6.90;99.90
42099;DHT22;27758;55.900;8.516;2023-05-07T03:50:34;6.90;99.90
42099;DHT22;27758;55.900;8.516;2023-05-07T03:53:00;6.90;99.90
42099;DHT22;27758;55.900;8.516;2023-05-07T03:55:26;6.90;99.90
42099;DHT22;27758;55.900;8.516;2023-05-07T03:57:52;6.90;99.90
42099;DHT22;27758;55.900;8.516;2023-05-07T04:00:17;6.90;99.90
42099;DHT22;27758;55.900;8.516;2023-05-07T04:02:45;6.90;99.90
42099;DHT22;27758;55.900;8.516;2023-05-07T04:05:11;6.90;99.90
42099;DHT22;27758;55.900;8.516;2023-05-07T04:07:37;6.90;99.90
42099;DHT22;27758;55.900;8.516;2023-05-07T04:10:03;7.00;99.90
42099;DHT22;27758;55.900;8.516;2023-05-07T04:12:29;7.00;99.90
42099;DHT22;27758;55.900;8.516;2023-05-07T04:14:55;7.00;99.90
42099;DHT22;27758;55.900;8.516;2023-05-07T04:17:21;7.00;99.90
42099;DHT22;27758;55.900;8.516;2023-05-07T04:19:46;7.00;99.90
42099;DHT22;27758;55.900;8.516;2023-05-07T04:22:12;7.10;99.90
42099;DHT22;27758;55.900;8.516;2023-05-07T04:24:38;7.10;99.90
42099;DHT22;27758;55.900;8.516;2023-05-07T04:27:03;7.00;99.90
42099;DHT22;27758;55.900;8.516;2023-05-07T04:29:32;7.00;99.90
42099;DHT22;27758;55.900;8.516;2023-05-07T04:31:59;7.00;99.90
42099;DHT22;27758;55.900;8.516;2023-05-07T04:34:25;7.10;99.90
42099;DHT22;27758;55.900;8.516;2023-05-07T04:36:51;7.00;99.90
42099;DHT22;27758;55.900;8.516;2023-05-07T04:39:16;7.00;99.90
42099;DHT22;27758;55.900;8.516;2023-05-07T04:41:42;7.10;99.90
42099;DHT22;27758;55.900;8.516;2023-05-07T04:44:08;7.10;99.90
42099;DHT22;27758;55.900;8.516;2023-05-07T04:46:34;7.20;99.90
42099;DHT22;27758;55.900;8.516;2023-05-07T04:49:00;7.20;99.90
42099;DHT22;27758;55.900;8.516;2023-05-07T04:51:26;7.20;99.90
42099;DHT22;27758;55.900;8.516;2023-05-07T04:53:51;7.20;99.90
42099;DHT22;27758;55.900;8.516;2023-05-07T04:56:17;7.30;99.90
42099;DHT22;27758;55.900;8.516;2023-05-07T04:58:43;7.30;99.90
42099;DHT22;27758;55.900;8.516;2023-05-07T05:01:08;7.40;99.90
42099;DHT22;27758;55.900;8.516;2023-05-07T05:03:34;7.40;99.90
42099;DHT22;27758;55.900;8.516;2023-05-07T05:06:05;7.40;99.90
42099;DHT22;27758;55.900;8.516;2023-05-07T05:08:31;7.50;99.90
42099;DHT22;27758;55.900;8.516;2023-05-07T05:10:57;7.40;99.90
42099;DHT22;27758;55.900;8.516;2023-05-07T05:13:23;7.50;99.90
42099;DHT22;27758;55.900;8.516;2023-05-07T05:15:49;7.40;99.90
42099;DHT22;27758;55.900;8.516;2023-05-07T05:18:18;7.50;99.90
42099;DHT22;27758;55.900;8.516;2023-05-07T05:20:43;7.50;99.90
42099;DHT22;27758;55.900;8.516;2023-05-07T05:23:09;7.60;99.90
42099;DHT22;27758;55.900;8.516;2023-05-07T05:25:35;7.60;99.90
42099;DHT22;27758;55.900;8.516;2023-05-07T05:28:00;7.50;99.90
42099;DHT22;27758;55.900;8.516;2023-05-07T05:30:26;7.60;99.90
42099;DHT22;27758;55.900;8.516;2023-05-07T05:32:52;7.60;99.90
42099;DHT22;27758;55.900;8.516;2023-05-07T05:35:19;7.60;99.90
42099;DHT22;27758;55.900;8.516;2023-05-07T05:37:45;7.60;99.90
42099;DHT22;27758;55.900;8.516;2023-05-07T05:40:12;7.50;99.90
42099;DHT22;27758;55.900;8.516;2023-05-07T05:42:37;7.60;99.90
42099;DHT22;27758;55.900;8.516;2023-05-07T05:45:03;7.60;99.90
42099;DHT22;27758;55.900;8.516;2023-05-07T05:47:29;7.60;99.90
42099;DHT22;27758;55.900;8.516;2023-05-07T05:49:55;7.70;99.90
42099;DHT22;27758;55.900;8.516;2023-05-07T05:52:21;7.70;99.90
42099;DHT22;27758;55.900;8.516;2023-05-07T05:54:49;7.80;99.90
42099;DHT22;27758;55.900;8.516;2023-05-07T05:57:15;7.90;99.90
42099;DHT22;27758;55.900;8.516;2023-05-07T05:59:40;8.00;99.90
42099;DHT22;27758;55.900;8.516;2023-05-07T06:02:06;8.00;99.90
42099;DHT22;27758;55.900;8.516;2023-05-07T06:04:35;8.00;99.90
42099;DHT22;27758;55.900;8.516;2023-05-07T06:07:00;8.00;99.90
42099;DHT22;27758;55.900;8.516;2023-05-07T06:09:26;8.00;99.90
42099;DHT22;27758;55.900;8.516;2023-05-07T06:11:52;8.00;99.90
42099;DHT22;27758;55.900;8.516;2023-05-07T06:14:17;8.00;99.90
42099;DHT22;27758;55.900;8.516;2023-05-07T06:16:44;8.00;99.90
42099;DHT22;27758;55.900;8.516;2023-05-07T06:19:09;8.10;99.90
42099;DHT22;27758;55.900;8.516;2023-05-07T06:21:35;8.30;99.90
42099;DHT22;27758;55.900;8.516;2023-05-07T06:24:04;8.40;99.90
42099;DHT22;27758;55.900;8.516;2023-05-07T06:26:30;8.40;99.90
42099;DHT22;27758;55.900;8.516;2023-05-07T06:28:56;8.50;99.90
42099;DHT22;27758;55.900;8.516;2023-05-07T06:31:21;8.50;99.90
42099;DHT22;27758;55.900;8.516;2023-05-07T06:33:48;8.50;99.90
42099;DHT22;27758;55.900;8.516;2023-05-07T06:36:14;8.50;99.90
42099;DHT22;27758;55.900;8.516;2023-05-07T06:38:40;8.50;99.90
42099;DHT22;27758;55.900;8.516;2023-05-07T06:41:06;8.60;99.90
42099;DHT22;27758;55.900;8.516;2023-05-07T06:43:35;8.60;99.90
42099;DHT22;27758;55.900;8.516;2023-05-07T06:46:01;8.60;99.90
42099;DHT22;27758;55.900;8.516;2023-05-07T06:48:27;8.70;99.90
42099;DHT22;27758;55.900;8.516;2023-05-07T06:50:52;8.80;99.90
42099;DHT22;27758;55.900;8.516;2023-05-07T06:53:20;8.90;99.90
42099;DHT22;27758;55.900;8.516;2023-05-07T06:55:46;8.90;99.90
42099;DHT22;27758;55.900;8.516;2023-05-07T06:58:11;8.80;99.90
42099;DHT22;27758;55.900;8.516;2023-05-07T07:00:37;8.90;99.90
42099;DHT22;27758;55.900;8.516;2023-05-07T07:03:03;9.00;99.90
42099;DHT22;27758;55.900;8.516;2023-05-07T07:05:29;9.00;99.90
42099;DHT22;27758;55.900;8.516;2023-05-07T07:07:54;9.00;99.90
42099;DHT22;27758;55.900;8.516;2023-05-07T07:10:20;9.10;99.90
42099;DHT22;27758;55.900;8.516;2023-05-07T07:12:46;9.10;99.90
42099;DHT22;27758;55.900;8.516;2023-05-07T07:15:12;9.10;99.90
42099;DHT22;27758;55.900;8.516;2023-05-07T07:17:41;9.20;99.90
42099;DHT22;27758;55.900;8.516;2023-05-07T07:20:08;9.20;99.90
42099;DHT22;27758;55.900;8.516;2023-05-07T07:22:33;9.20;99.90
42099;DHT22;27758;55.900;8.516;2023-05-07T07:24:59;9.20;99.90
42099;DHT22;27758;55.900;8.516;2023-05-07T07:27:25;9.30;99.90
42099;DHT22;27758;55.900;8.516;2023-05-07T07:29:51;9.30;99.90
42099;DHT22;27758;55.900;8.516;2023-05-07T07:32:16;9.50;99.90
42099;DHT22;27758;55.900;8.516;2023-05-07T07:34:42;9.50;99.90
42099;DHT22;27758;55.900;8.516;2023-05-07T07:37:08;9.60;99.90
42099;DHT22;27758;55.900;8.516;2023-05-07T07:39:34;9.70;99.90
42099;DHT22;27758;55.900;8.516;2023-05-07T07:41:59;9.90;99.90
42099;DHT22;27758;55.900;8.516;2023-05-07T07:44:25;10.10;99.90
42099;DHT22;27758;55.900;8.516;2023-05-07T07:46:51;10.20;99.90
42099;DHT22;27758;55.900;8.516;2023-05-07T07:49:20;10.30;99.90
42099;DHT22;27758;55.900;8.516;2023-05-07T07:51:46;10.30;99.90
42099;DHT22;27758;55.900;8.516;2023-05-07T07:54:11;10.40;99.90
42099;DHT22;27758;55.900;8.516;2023-05-07T07:56:38;10.50;99.90
42099;DHT22;27758;55.900;8.516;2023-05-07T07:59:03;10.70;99.90
42099;DHT22;27758;55.900;8.516;2023-05-07T08:01:30;10.80;99.90
42099;DHT22;27758;55.900;8.516;2023-05-07T08:03:56;10.90;99.90
42099;DHT22;27758;55.900;8.516;2023-05-07T08:06:26;11.10;99.90
42099;DHT22;27758;55.900;8.516;2023-05-07T08:08:52;11.30;99.90
42099;DHT22;27758;55.900;8.516;2023-05-07T08:11:27;11.70;99.90
42099;DHT22;27758;55.900;8.516;2023-05-07T08:13:53;11.60;99.90
42099;DHT22;27758;55.900;8.516;2023-05-07T08:16:20;11.30;99.90
42099;DHT22;27758;55.900;8.516;2023-05-07T08:18:45;11.50;99.90
42099;DHT22;27758;55.900;8.516;2023-05-07T08:21:11;11.50;99.90
42099;DHT22;27758;55.900;8.516;2023-05-07T08:23:37;11.60;99.90
42099;DHT22;27758;55.900;8.516;2023-05-07T08:26:03;11.70;99.90
42099;DHT22;27758;55.900;8.516;2023-05-07T08:28:31;11.70;99.90
42099;DHT22;27758;55.900;8.516;2023-05-07T08:30:57;11.60;99.90
42099;DHT22;27758;55.900;8.516;2023-05-07T08:33:25;11.90;99.90
42099;DHT22;27758;55.900;8.516;2023-05-07T08:35:50;11.70;99.90
42099;DHT22;27758;55.900;8.516;2023-05-07T08:38:16;11.70;99.90
42099;DHT22;27758;55.900;8.516;2023-05-07T08:40:42;12.10;99.90
42099;DHT22;27758;55.900;8.516;2023-05-07T08:43:08;12.40;99.90
42099;DHT22;27758;55.900;8.516;2023-05-07T08:45:40;12.70;99.90
42099;DHT22;27758;55.900;8.516;2023-05-07T08:48:15;13.00;99.90
42099;DHT22;27758;55.900;8.516;2023-05-07T08:50:42;12.60;99.90
42099;DHT22;27758;55.900;8.516;2023-05-07T08:53:08;12.10;99.90
42099;DHT22;27758;55.900;8.516;2023-05-07T08:55:33;12.00;99.90
42099;DHT22;27758;55.900;8.516;2023-05-07T08:58:00;12.60;99.90
42099;DHT22;27758;55.900;8.516;2023-05-07T09:00:26;12.70;99.90
42099;DHT22;27758;55.900;8.516;2023-05-07T09:02:53;12.70;99.90
42099;DHT22;27758;55.900;8.516;2023-05-07T09:05:19;12.50;99.90
42099;DHT22;27758;55.900;8.516;2023-05-07T09:07:45;12.60;99.90
42099;DHT22;27758;55.900;8.516;2023-05-07T09:10:12;12.80;99.90
42099;DHT22;27758;55.900;8.516;2023-05-07T09:12:38;13.20;99.90
42099;DHT22;27758;55.900;8.516;2023-05-07T09:15:06;13.40;99.90
42099;DHT22;27758;55.900;8.516;2023-05-07T09:17:32;13.30;99.90
42099;DHT22;27758;55.900;8.516;2023-05-07T09:20:05;12.90;99.90
42099;DHT22;27758;55.900;8.516;2023-05-07T09:22:36;13.00;99.90
42099;DHT22;27758;55.900;8.516;2023-05-07T09:25:02;13.20;99.90
42099;DHT22;27758;55.900;8.516;2023-05-07T09:27:28;13.30;99.90
42099;DHT22;27758;55.900;8.516;2023-05-07T09:29:54;13.40;99.90
42099;DHT22;27758;55.900;8.516;2023-05-07T09:32:20;13.50;99.90
42099;DHT22;27758;55.900;8.516;2023-05-07T09:34:45;13.50;99.90
42099;DHT22;27758;55.900;8.516;2023-05-07T09:37:13;13.30;99.90
42099;DHT22;27758;55.900;8.516;2023-05-07T09:42:06;14.00;99.90
42099;DHT22;27758;55.900;8.516;2023-05-07T09:44:33;14.10;99.90
42099;DHT22;27758;55.900;8.516;2023-05-07T09:47:00;14.00;99.90
42099;DHT22;27758;55.900;8.516;2023-05-07T09:49:29;13.90;99.90
42099;DHT22;27758;55.900;8.516;2023-05-07T09:51:56;14.40;99.90
42099;DHT22;27758;55.900;8.516;2023-05-07T09:54:24;14.60;99.90
42099;DHT22;27758;55.900;8.516;2023-05-07T09:56:52;14.50;99.90
42099;DHT22;27758;55.900;8.516;2023-05-07T09:59:18;14.50;99.90
42099;DHT22;27758;55.900;8.516;2023-05-07T10:01:45;14.10;99.90
42099;DHT22;27758;55.900;8.516;2023-05-07T10:04:12;13.80;99.90
42099;DHT22;27758;55.900;8.516;2023-05-07T10:06:38;14.30;99.90
42099;DHT22;27758;55.900;8.516;2023-05-07T10:09:04;14.80;99.90
42099;DHT22;27758;55.900;8.516;2023-05-07T10:11:32;14.80;99.90
42099;DHT22;27758;55.900;8.516;2023-05-07T10:13:59;14.90;99.90
42099;DHT22;27758;55.900;8.516;2023-05-07T10:16:30;15.00;99.90
42099;DHT22;27758;55.900;8.516;2023-05-07T10:19:08;15.20;99.90
42099;DHT22;27758;55.900;8.516;2023-05-07T10:21:39;15.20;99.90
42099;DHT22;27758;55.900;8.516;2023-05-07T10:24:15;15.20;99.90
42099;DHT22;27758;55.900;8.516;2023-05-07T10:26:44;15.30;99.90
42099;DHT22;27758;55.900;8.516;2023-05-07T10:29:38;15.50;99.90
42099;DHT22;27758;55.900;8.516;2023-05-07T10:34:54;15.50;99.90
42099;DHT22;27758;55.900;8.516;2023-05-07T10:37:20;15.50;99.90
42099;DHT22;27758;55.900;8.516;2023-05-07T10:39:46;15.00;99.90
42099;DHT22;27758;55.900;8.516;2023-05-07T10:42:14;14.50;99.90
42099;DHT22;27758;55.900;8.516;2023-05-07T10:44:40;14.60;99.90
42099;DHT22;27758;55.900;8.516;2023-05-07T10:47:12;14.90;99.90
42099;DHT22;27758;55.900;8.516;2023-05-07T10:52:24;15.30;99.90
42099;DHT22;27758;55.900;8.516;2023-05-07T10:57:43;16.30;99.90
42099;DHT22;27758;55.900;8.516;2023-05-07T11:05:31;16.50;99.90
42099;DHT22;27758;55.900;8.516;2023-05-07T11:07:59;16.40;99.90
42099;DHT22;27758;55.900;8.516;2023-05-07T11:10:47;16.60;99.90
42099;DHT22;27758;55.900;8.516;2023-05-07T11:13:14;16.90;99.90
42099;DHT22;27758;55.900;8.516;2023-05-07T11:15:47;17.30;99.90
42099;DHT22;27758;55.900;8.516;2023-05-07T11:18:17;17.50;99.90
42099;DHT22;27758;55.900;8.516;2023-05-07T11:20:54;17.30;99.90
42099;DHT22;27758;55.900;8.516;2023-05-07T11:26:04;16.40;99.90
42099;DHT22;27758;55.900;8.516;2023-05-07T11:28:30;16.20;99.90
42099;DHT22;27758;55.900;8.516;2023-05-07T11:30:57;16.40;99.90
42099;DHT22;27758;55.900;8.516;2023-05-07T11:33:23;16.80;99.90
42099;DHT22;27758;55.900;8.516;2023-05-07T11:35:55;17.10;99.90
42099;DHT22;27758;55.900;8.516;2023-05-07T11:38:21;17.10;99.90
42099;DHT22;27758;55.900;8.516;2023-05-07T11:40:58;17.20;99.90
42099;DHT22;27758;55.900;8.516;2023-05-07T11:43:28;17.10;99.90
42099;DHT22;27758;55.900;8.516;2023-05-07T11:45:54;17.40;99.90
42099;DHT22;27758;55.900;8.516;2023-05-07T11:48:23;17.60;99.90
42099;DHT22;27758;55.900;8.516;2023-05-07T11:50:52;18.00;99.90
42099;DHT22;27758;55.900;8.516;2023-05-07T11:53:19;18.10;99.90
42099;DHT22;27758;55.900;8.516;2023-05-07T11:55:46;18.30;99.90
42099;DHT22;27758;55.900;8.516;2023-05-07T11:58:15;18.20;99.90
42099;DHT22;27758;55.900;8.516;2023-05-07T12:00:53;18.10;99.90
42099;DHT22;27758;55.900;8.516;2023-05-07T12:03:20;18.30;99.90
42099;DHT22;27758;55.900;8.516;2023-05-07T12:05:46;18.40;99.90
42099;DHT22;27758;55.900;8.516;2023-05-07T12:08:16;17.90;99.90
42099;DHT22;27758;55.900;8.516;2023-05-07T12:10:42;17.80;99.90
42099;DHT22;27758;55.900;8.516;2023-05-07T12:15:43;17.60;99.90
42099;DHT22;27758;55.900;8.516;2023-05-07T12:18:09;17.60;99.90
42099;DHT22;27758;55.900;8.516;2023-05-07T12:20:36;17.40;99.90
42099;DHT22;27758;55.900;8.516;2023-05-07T12:23:02;17.10;99.90
42099;DHT22;27758;55.900;8.516;2023-05-07T12:25:35;16.80;99.90
42099;DHT22;27758;55.900;8.516;2023-05-07T12:28:02;16.90;99.90
42099;DHT22;27758;55.900;8.516;2023-05-07T12:30:39;17.20;99.90
42099;DHT22;27758;55.900;8.516;2023-05-07T12:33:07;16.80;99.90
42099;DHT22;27758;55.900;8.516;2023-05-07T12:35:37;16.70;99.90
42099;DHT22;27758;55.900;8.516;2023-05-07T12:38:08;17.10;99.90
42099;DHT22;27758;55.900;8.516;2023-05-07T12:40:42;17.40;99.90
42099;DHT22;27758;55.900;8.516;2023-05-07T12:43:23;17.70;99.90
42099;DHT22;27758;55.900;8.516;2023-05-07T12:45:50;18.00;99.90
42099;DHT22;27758;55.900;8.516;2023-05-07T12:48:17;18.00;99.90
42099;DHT22;27758;55.900;8.516;2023-05-07T12:50:43;17.90;99.90
42099;DHT22;27758;55.900;8.516;2023-05-07T12:53:10;17.90;99.90
42099;DHT22;27758;55.900;8.516;2023-05-07T12:55:46;17.80;99.90
42099;DHT22;27758;55.900;8.516;2023-05-07T12:58:19;17.70;99.90
42099;DHT22;27758;55.900;8.516;2023-05-07T13:00:48;17.50;99.90
42099;DHT22;27758;55.900;8.516;2023-05-07T13:03:28;17.40;99.90
42099;DHT22;27758;55.900;8.516;2023-05-07T13:06:01;17.50;99.90
42099;DHT22;27758;55.900;8.516;2023-05-07T13:08:38;17.60;99.90
42099;DHT22;27758;55.900;8.516;2023-05-07T13:11:12;17.60;99.90
42099;DHT22;27758;55.900;8.516;2023-05-07T13:13:39;17.50;99.90
42099;DHT22;27758;55.900;8.516;2023-05-07T13:16:10;17.80;99.90
42099;DHT22;27758;55.900;8.516;2023-05-07T13:18:37;17.80;99.90
42099;DHT22;27758;55.900;8.516;2023-05-07T13:21:03;17.70;99.90
42099;DHT22;27758;55.900;8.516;2023-05-07T13:23:29;17.30;99.90
42099;DHT22;27758;55.900;8.516;2023-05-07T13:25:55;17.10;99.90
42099;DHT22;27758;55.900;8.516;2023-05-07T13:28:21;16.80;99.90
42099;DHT22;27758;55.900;8.516;2023-05-07T13:30:47;17.00;99.90
42099;DHT22;27758;55.900;8.516;2023-05-07T13:33:13;17.30;99.90
42099;DHT22;27758;55.900;8.516;2023-05-07T13:35:40;17.50;99.90
42099;DHT22;27758;55.900;8.516;2023-05-07T13:38:06;17.70;99.90
42099;DHT22;27758;55.900;8.516;2023-05-07T13:40:32;17.80;99.90
42099;DHT22;27758;55.900;8.516;2023-05-07T13:42:58;17.80;99.90
42099;DHT22;27758;55.900;8.516;2023-05-07T13:45:25;17.70;99.90
42099;DHT22;27758;55.900;8.516;2023-05-07T13:47:51;17.80;99.90
42099;DHT22;27758;55.900;8.516;2023-05-07T13:50:17;17.80;99.90
42099;DHT22;27758;55.900;8.516;2023-05-07T13:52:44;17.80;99.90
42099;DHT22;27758;55.900;8.516;2023-05-07T13:55:18;17.50;99.90
42099;DHT22;27758;55.900;8.516;2023-05-07T13:57:44;17.40;99.90
42099;DHT22;27758;55.900;8.516;2023-05-07T14:00:11;17.60;99.90
42099;DHT22;27758;55.900;8.516;2023-05-07T14:02:37;17.40;99.90
42099;DHT22;27758;55.900;8.516;2023-05-07T14:05:02;17.50;99.90
42099;DHT22;27758;55.900;8.516;2023-05-07T14:07:28;17.60;99.90
42099;DHT22;27758;55.900;8.516;2023-05-07T14:09:54;17.60;99.90
42099;DHT22;27758;55.900;8.516;2023-05-07T14:12:26;17.50;99.90
42099;DHT22;27758;55.900;8.516;2023-05-07T14:14:52;17.70;99.90
42099;DHT22;27758;55.900;8.516;2023-05-07T14:17:18;17.80;99.90
42099;DHT22;27758;55.900;8.516;2023-05-07T14:19:44;17.70;99.90
42099;DHT22;27758;55.900;8.516;2023-05-07T14:22:12;17.60;99.90
42099;DHT22;27758;55.900;8.516;2023-05-07T14:24:38;17.70;99.90
42099;DHT22;27758;55.900;8.516;2023-05-07T14:27:05;17.50;99.90
42099;DHT22;27758;55.900;8.516;2023-05-07T14:29:31;17.30;99.90
42099;DHT22;27758;55.900;8.516;2023-05-07T14:31:56;17.40;99.90
42099;DHT22;27758;55.900;8.516;2023-05-07T14:34:22;17.40;99.90
42099;DHT22;27758;55.900;8.516;2023-05-07T14:36:48;17.50;99.90
42099;DHT22;27758;55.900;8.516;2023-05-07T14:39:13;17.70;99.90
42099;DHT22;27758;55.900;8.516;2023-05-07T14:41:39;17.80;99.90
42099;DHT22;27758;55.900;8.516;2023-05-07T14:44:05;17.80;99.90
42099;DHT22;27758;55.900;8.516;2023-05-07T14:46:30;17.60;99.90
42099;DHT22;27758;55.900;8.516;2023-05-07T14:48:57;17.60;99.90
42099;DHT22;27758;55.900;8.516;2023-05-07T14:51:23;17.60;99.90
42099;DHT22;27758;55.900;8.516;2023-05-07T14:53:50;17.60;99.90
42099;DHT22;27758;55.900;8.516;2023-05-07T14:56:16;17.50;99.90
42099;DHT22;27758;55.900;8.516;2023-05-07T14:58:43;17.30;99.90
42099;DHT22;27758;55.900;8.516;2023-05-07T15:01:09;17.40;99.90
42099;DHT22;27758;55.900;8.516;2023-05-07T15:03:35;17.40;99.90
42099;DHT22;27758;55.900;8.516;2023-05-07T15:06:01;17.30;99.90
42099;DHT22;27758;55.900;8.516;2023-05-07T15:08:28;17.40;99.90
42099;DHT22;27758;55.900;8.516;2023-05-07T15:10:53;17.40;99.90
42099;DHT22;27758;55.900;8.516;2023-05-07T15:13:20;17.40;99.90
42099;DHT22;27758;55.900;8.516;2023-05-07T15:15:46;17.40;99.90
42099;DHT22;27758;55.900;8.516;2023-05-07T15:18:12;17.40;99.90
42099;DHT22;27758;55.900;8.516;2023-05-07T15:20:38;17.50;99.90
42099;DHT22;27758;55.900;8.516;2023-05-07T15:23:05;17.40;99.90
42099;DHT22;27758;55.900;8.516;2023-05-07T15:25:31;17.40;99.90
42099;DHT22;27758;55.900;8.516;2023-05-07T15:27:58;17.40;99.90
42099;DHT22;27758;55.900;8.516;2023-05-07T15:30:24;17.30;99.90
42099;DHT22;27758;55.900;8.516;2023-05-07T15:32:50;17.20;99.90
42099;DHT22;27758;55.900;8.516;2023-05-07T15:35:16;17.20;99.90
42099;DHT22;27758;55.900;8.516;2023-05-07T15:37:42;17.10;99.90
42099;DHT22;27758;55.900;8.516;2023-05-07T15:40:09;17.10;99.90
42099;DHT22;27758;55.900;8.516;2023-05-07T15:42:36;17.10;99.90
42099;DHT22;27758;55.900;8.516;2023-05-07T15:45:01;17.10;99.90
42099;DHT22;27758;55.900;8.516;2023-05-07T15:47:27;17.00;99.90
42099;DHT22;27758;55.900;8.516;2023-05-07T15:49:56;17.00;99.90
42099;DHT22;27758;55.900;8.516;2023-05-07T15:52:21;16.90;99.90
42099;DHT22;27758;55.900;8.516;2023-05-07T15:54:47;17.10;99.90
42099;DHT22;27758;55.900;8.516;2023-05-07T15:57:13;17.20;99.90